Time;durP1;ratioP1;P1;durP2;ratioP2;P2;SDS_P1;SDS_P2;PMS_P1;PMS_P2;Temp;Humidity;BMP_temperature;BMP_pressure;BME280_temperature;BME280_humidity;BME280_pressure;Samples;Min_cycle;Max_cycle;Signal;HPM_P1;HPM_P2
2024/01/17 00:02:07;;;;;;;0.73;0.73;;;;;;;;;;5046097;28;20041;-80
2024/01/17 00:04:36;;;;;;;0.88;0.85;;;;;;;;;;5065902;28;20095;-80
2024/01/17 00:07:03;;;;;;;1.95;1.58;;;;;;;;;;5069838;28;20039;-80
2024/01/17 00:09:31;;;;;;;4.00;1.92;;;;;;;;;;5067162;28;20167;-81
2024/01/17 00:12:03;;;;;;;0.80;0.80;;;;;;;;;;5064669;28;20474;-80
2024/01/17 00:14:31;;;;;;;1.20;0.82;;;;;;;;;;5064620;28;20040;-80
2024/01/17 00:16:59;;;;;;;2.75;1.98;;;;;;;;;;5060796;28;20048;-81
2024/01/17 00:19:29;;;;;;;1.23;0.73;;;;;;;;;;5064826;28;20051;-82
2024/01/17 00:21:57;;;;;;;4.03;1.40;;;;;;;;;;5069428;28;20064;-81
2024/01/17 00:24:25;;;;;;;1.38;1.30;;;;;;;;;;5064793;28;20525;-80
2024/01/17 00:29:48;;;;;;;0.63;0.60;;;;;;;;;;5051228;28;20045;-74
2024/01/17 00:32:15;;;;;;;0.90;0.90;;;;;;;;;;5058896;28;20554;-73
2024/01/17 00:34:43;;;;;;;1.40;1.30;;;;;;;;;;5063875;28;20040;-74
2024/01/17 00:37:11;;;;;;;1.00;1.00;;;;;;;;;;5044048;28;20041;-73
2024/01/17 00:39:38;;;;;;;0.63;0.57;;;;;;;;;;5055982;28;20128;-74
2024/01/17 00:42:06;;;;;;;3.88;2.35;;;;;;;;;;5064513;28;20051;-74
2024/01/17 00:44:38;;;;;;;0.80;0.80;;;;;;;;;;5051236;28;20053;-73
2024/01/17 00:47:06;;;;;;;1.23;1.23;;;;;;;;;;5063034;28;20163;-74
2024/01/17 00:49:33;;;;;;;0.43;0.43;;;;;;;;;;5058580;28;20063;-74
2024/01/17 00:52:01;;;;;;;0.70;0.70;;;;;;;;;;5060764;28;20563;-74
2024/01/17 00:54:29;;;;;;;0.55;0.55;;;;;;;;;;5060020;28;20050;-73
2024/01/17 00:56:56;;;;;;;0.75;0.75;;;;;;;;;;5056322;28;20453;-74
2024/01/17 00:59:24;;;;;;;1.80;0.93;;;;;;;;;;5064304;28;20055;-74
2024/01/17 01:01:52;;;;;;;4.07;3.55;;;;;;;;;;5055345;28;20041;-73
2024/01/17 01:04:19;;;;;;;2.70;2.00;;;;;;;;;;5055076;28;20374;-74
2024/01/17 01:06:47;;;;;;;24.55;6.90;;;;;;;;;;5057858;28;20076;-73
2024/01/17 01:09:15;;;;;;;0.95;0.93;;;;;;;;;;5057472;28;20056;-73
2024/01/17 01:11:43;;;;;;;4.38;2.20;;;;;;;;;;5030472;28;20053;-74
2024/01/17 01:14:11;;;;;;;1.30;1.20;;;;;;;;;;5057102;28;20044;-74
2024/01/17 01:16:39;;;;;;;2.72;1.55;;;;;;;;;;5058334;28;20282;-73
2024/01/17 01:19:08;;;;;;;1.73;1.55;;;;;;;;;;5054404;28;20156;-75
2024/01/17 01:21:36;;;;;;;3.75;1.27;;;;;;;;;;5056123;28;20426;-74
2024/01/17 01:24:03;;;;;;;3.30;1.63;;;;;;;;;;5063572;28;20421;-74
2024/01/17 01:26:31;;;;;;;12.70;2.80;;;;;;;;;;5059832;28;20040;-74
2024/01/17 01:28:59;;;;;;;4.15;1.55;;;;;;;;;;5059171;28;20599;-74
2024/01/17 01:31:26;;;;;;;9.05;8.30;;;;;;;;;;5059915;28;20048;-73
2024/01/17 01:33:54;;;;;;;0.93;0.93;;;;;;;;;;5059994;28;20113;-73
2024/01/17 01:36:22;;;;;;;6.22;5.55;;;;;;;;;;5056555;28;20039;-74
2024/01/17 01:38:50;;;;;;;0.63;0.52;;;;;;;;;;5059340;28;20158;-74
2024/01/17 01:41:18;;;;;;;4.57;2.47;;;;;;;;;;5058148;28;20036;-74
2024/01/17 01:43:45;;;;;;;0.90;0.90;;;;;;;;;;5056927;28;20063;-74
2024/01/17 01:46:21;;;;;;;1.42;1.33;;;;;;;;;;5059944;28;20052;-74
2024/01/17 01:48:49;;;;;;;0.90;0.90;;;;;;;;;;5056145;28;20131;-74
2024/01/17 01:51:17;;;;;;;1.13;0.80;;;;;;;;;;5058919;28;20090;-74
2024/01/17 01:53:48;;;;;;;0.90;0.90;;;;;;;;;;5057570;28;20093;-73
2024/01/17 01:56:18;;;;;;;0.65;0.65;;;;;;;;;;5059496;28;20554;-73
2024/01/17 01:58:46;;;;;;;1.35;1.25;;;;;;;;;;5055048;28;20049;-74
2024/01/17 02:01:15;;;;;;;1.45;1.35;;;;;;;;;;5057881;28;20147;-74
2024/01/17 02:03:43;;;;;;;1.60;1.50;;;;;;;;;;5055283;28;20105;-74
2024/01/17 02:06:13;;;;;;;0.52;0.52;;;;;;;;;;5059688;28;20048;-73
2024/01/17 02:08:42;;;;;;;1.50;1.40;;;;;;;;;;5056716;28;20408;-73
2024/01/17 02:11:09;;;;;;;1.33;1.27;;;;;;;;;;5063133;28;20098;-74
2024/01/17 02:13:37;;;;;;;0.75;0.75;;;;;;;;;;5044601;28;20051;-74
2024/01/17 02:16:06;;;;;;;1.27;1.17;;;;;;;;;;5062879;28;20050;-74
2024/01/17 02:18:33;;;;;;;1.75;1.05;;;;;;;;;;5057335;28;20045;-74
2024/01/17 02:21:01;;;;;;;1.60;1.02;;;;;;;;;;5039513;28;20786;-74
2024/01/17 02:23:29;;;;;;;1.38;1.27;;;;;;;;;;5059358;28;20090;-74
2024/01/17 02:25:58;;;;;;;1.67;1.35;;;;;;;;;;5036820;28;20048;-73
2024/01/17 02:28:30;;;;;;;0.50;0.47;;;;;;;;;;5053120;28;20094;-74
2024/01/17 02:30:58;;;;;;;2.35;1.17;;;;;;;;;;5057873;28;20146;-74
2024/01/17 02:33:26;;;;;;;3.00;2.10;;;;;;;;;;5056957;28;20047;-74
2024/01/17 02:35:54;;;;;;;1.02;0.98;;;;;;;;;;5059409;28;20048;-74
2024/01/17 02:38:22;;;;;;;3.90;2.83;;;;;;;;;;5055425;28;20060;-74
2024/01/17 02:40:50;;;;;;;0.20;0.20;;;;;;;;;;5062506;28;20051;-74
2024/01/17 02:43:17;;;;;;;1.67;1.60;;;;;;;;;;5059400;28;20098;-74
2024/01/17 02:45:45;;;;;;;1.45;0.73;;;;;;;;;;5054662;28;20049;-73
2024/01/17 02:48:13;;;;;;;2.42;0.73;;;;;;;;;;5057063;28;20102;-74
2024/01/17 02:50:40;;;;;;;0.82;0.73;;;;;;;;;;5057001;28;20429;-73
2024/01/17 02:53:08;;;;;;;0.60;0.60;;;;;;;;;;5060462;28;20047;-74
2024/01/17 02:55:35;;;;;;;1.95;1.33;;;;;;;;;;5056797;28;20045;-74
2024/01/17 02:58:03;;;;;;;0.95;0.93;;;;;;;;;;5062679;28;20055;-74
2024/01/17 03:00:33;;;;;;;1.27;1.05;;;;;;;;;;5053040;28;20075;-74
2024/01/17 03:03:00;;;;;;;1.13;1.02;;;;;;;;;;5050958;28;20581;-74
2024/01/17 03:05:28;;;;;;;2.03;1.20;;;;;;;;;;5054132;28;20049;-74
2024/01/17 03:07:56;;;;;;;1.08;1.05;;;;;;;;;;5050954;28;20045;-74
2024/01/17 03:10:23;;;;;;;1.58;1.17;;;;;;;;;;5058086;28;20046;-74
2024/01/17 03:12:51;;;;;;;2.90;2.40;;;;;;;;;;5059865;28;20553;-74
2024/01/17 03:15:18;;;;;;;2.85;2.60;;;;;;;;;;5059806;28;20076;-74
2024/01/17 03:17:47;;;;;;;1.65;1.38;;;;;;;;;;5058758;28;21127;-73
2024/01/17 03:20:15;;;;;;;3.10;2.28;;;;;;;;;;5057723;28;20079;-73
2024/01/17 03:22:42;;;;;;;0.10;0.10;;;;;;;;;;5058665;28;20500;-74
2024/01/17 03:25:10;;;;;;;4.28;3.30;;;;;;;;;;5054815;28;20067;-74
2024/01/17 03:27:38;;;;;;;1.40;1.30;;;;;;;;;;5049172;28;20511;-74
2024/01/17 03:30:07;;;;;;;1.02;0.85;;;;;;;;;;5062106;28;20049;-73
2024/01/17 03:32:34;;;;;;;2.33;1.95;;;;;;;;;;5058304;28;20289;-74
2024/01/17 03:35:02;;;;;;;10.52;1.83;;;;;;;;;;5054851;28;20068;-74
2024/01/17 03:37:30;;;;;;;8.95;2.72;;;;;;;;;;5062463;28;20498;-74
2024/01/17 03:39:58;;;;;;;1.95;1.00;;;;;;;;;;5061162;28;20489;-73
2024/01/17 03:42:25;;;;;;;0.75;0.75;;;;;;;;;;5066514;28;20076;-73
2024/01/17 03:44:53;;;;;;;3.08;2.80;;;;;;;;;;5057693;28;20048;-74
2024/01/17 03:47:21;;;;;;;1.35;1.25;;;;;;;;;;5060269;28;20051;-74
2024/01/17 03:49:48;;;;;;;2.22;2.08;;;;;;;;;;5064198;28;20122;-73
2024/01/17 03:52:16;;;;;;;2.50;1.20;;;;;;;;;;5063352;28;20044;-73
2024/01/17 03:54:44;;;;;;;0.68;0.60;;;;;;;;;;5062898;28;20130;-74
2024/01/17 03:57:14;;;;;;;4.32;1.83;;;;;;;;;;5065445;28;20087;-74
2024/01/17 03:59:45;;;;;;;0.60;0.60;;;;;;;;;;5062557;28;20041;-74
2024/01/17 04:02:13;;;;;;;2.65;1.75;;;;;;;;;;5053731;28;20048;-73
2024/01/17 04:04:41;;;;;;;4.55;3.70;;;;;;;;;;5065190;28;20131;-74
2024/01/17 04:07:09;;;;;;;2.38;2.20;;;;;;;;;;5056016;28;20063;-74
2024/01/17 04:09:37;;;;;;;9.02;6.13;;;;;;;;;;5066364;28;20410;-73
2024/01/17 04:12:05;;;;;;;0.70;0.70;;;;;;;;;;5062245;28;20051;-74
2024/01/17 04:14:33;;;;;;;10.60;2.28;;;;;;;;;;5064845;28;20509;-74
2024/01/17 04:17:00;;;;;;;2.58;1.23;;;;;;;;;;5054408;28;20052;-74
2024/01/17 04:19:28;;;;;;;1.55;1.10;;;;;;;;;;5037848;28;20122;-74
2024/01/17 04:21:59;;;;;;;2.95;2.42;;;;;;;;;;5062550;28;20045;-72
2024/01/17 04:24:26;;;;;;;3.65;2.92;;;;;;;;;;5060928;28;20047;-74
2024/01/17 04:26:55;;;;;;;4.85;3.63;;;;;;;;;;5057685;28;20047;-73
2024/01/17 04:29:23;;;;;;;6.82;3.03;;;;;;;;;;5059166;28;20049;-74
2024/01/17 04:31:52;;;;;;;0.80;0.80;;;;;;;;;;5059686;28;20122;-73
2024/01/17 04:34:20;;;;;;;2.67;1.77;;;;;;;;;;5060416;28;20131;-74
2024/01/17 04:36:48;;;;;;;1.67;1.38;;;;;;;;;;5048247;28;20041;-74
2024/01/17 04:39:16;;;;;;;0.77;0.77;;;;;;;;;;5064901;28;20075;-74
2024/01/17 04:41:43;;;;;;;1.23;1.13;;;;;;;;;;5058968;28;20135;-75
2024/01/17 04:44:11;;;;;;;4.70;3.90;;;;;;;;;;5063837;28;20055;-74
2024/01/17 04:46:39;;;;;;;6.35;3.75;;;;;;;;;;5061455;28;20264;-74
2024/01/17 04:49:07;;;;;;;2.05;1.70;;;;;;;;;;5060500;28;20053;-74
2024/01/17 04:51:35;;;;;;;3.17;2.42;;;;;;;;;;5064573;28;20048;-74
2024/01/17 04:54:03;;;;;;;1.10;1.08;;;;;;;;;;5066686;28;20036;-74
2024/01/17 04:56:31;;;;;;;2.75;1.27;;;;;;;;;;5061406;28;20047;-74
2024/01/17 04:58:58;;;;;;;0.52;0.20;;;;;;;;;;5062912;28;20041;-74
2024/01/17 05:01:26;;;;;;;0.82;0.82;;;;;;;;;;5056220;28;20040;-73
2024/01/17 05:03:54;;;;;;;0.98;0.95;;;;;;;;;;5054387;28;20135;-73
2024/01/17 05:06:22;;;;;;;1.65;1.55;;;;;;;;;;5058877;28;20049;-73
2024/01/17 05:08:50;;;;;;;3.47;2.92;;;;;;;;;;5044946;28;20130;-74
2024/01/17 05:11:21;;;;;;;1.67;1.58;;;;;;;;;;5024193;28;20044;-74
2024/01/17 05:13:49;;;;;;;1.75;1.35;;;;;;;;;;5057356;28;20064;-73
2024/01/17 05:16:17;;;;;;;0.45;0.45;;;;;;;;;;5057055;28;20060;-74
2024/01/17 05:18:45;;;;;;;1.65;1.30;;;;;;;;;;5057806;28;20032;-74
2024/01/17 05:21:13;;;;;;;1.05;1.02;;;;;;;;;;5034609;28;20415;-74
2024/01/17 05:23:40;;;;;;;0.65;0.65;;;;;;;;;;5050343;28;20045;-74
2024/01/17 05:26:08;;;;;;;1.45;0.85;;;;;;;;;;5056403;28;20047;-73
2024/01/17 05:28:36;;;;;;;0.50;0.50;;;;;;;;;;5046207;28;20554;-74
2024/01/17 05:31:04;;;;;;;0.32;0.32;;;;;;;;;;5037168;28;20048;-74
2024/01/17 05:33:32;;;;;;;4.07;3.05;;;;;;;;;;5055928;28;20040;-74
2024/01/17 05:36:00;;;;;;;2.30;2.10;;;;;;;;;;5059727;28;20504;-74
2024/01/17 05:38:27;;;;;;;1.63;1.52;;;;;;;;;;5055373;28;20047;-74
2024/01/17 05:40:56;;;;;;;2.08;1.92;;;;;;;;;;5050186;28;20055;-74
2024/01/17 05:43:24;;;;;;;1.13;1.13;;;;;;;;;;5056723;28;20045;-74
2024/01/17 05:45:52;;;;;;;0.52;0.47;;;;;;;;;;5056639;28;20043;-74
2024/01/17 05:48:19;;;;;;;1.35;1.00;;;;;;;;;;5062909;28;20063;-73
2024/01/17 05:50:47;;;;;;;2.75;1.88;;;;;;;;;;5057408;28;20063;-73
2024/01/17 05:53:15;;;;;;;1.15;0.75;;;;;;;;;;5061126;28;20704;-73
2024/01/17 05:55:43;;;;;;;0.35;0.35;;;;;;;;;;5057000;28;20413;-74
2024/01/17 05:58:10;;;;;;;4.18;3.67;;;;;;;;;;5063037;28;20129;-74
2024/01/17 06:00:39;;;;;;;4.43;2.15;;;;;;;;;;5016260;28;20669;-73
2024/01/17 06:03:07;;;;;;;2.30;2.08;;;;;;;;;;5036832;28;20628;-74
2024/01/17 06:05:35;;;;;;;0.85;0.82;;;;;;;;;;5047241;28;20437;-74
2024/01/17 06:08:04;;;;;;;3.88;2.42;;;;;;;;;;5052353;28;20040;-73
2024/01/17 06:10:33;;;;;;;4.28;2.25;;;;;;;;;;5048070;28;20060;-74
2024/01/17 06:13:00;;;;;;;1.85;1.30;;;;;;;;;;5059051;28;20044;-74
2024/01/17 06:15:28;;;;;;;3.30;0.77;;;;;;;;;;5056049;28;20107;-74
2024/01/17 06:17:55;;;;;;;0.95;0.95;;;;;;;;;;5052536;28;20072;-73
2024/01/17 06:20:23;;;;;;;0.93;0.93;;;;;;;;;;5053431;28;20408;-74
2024/01/17 06:22:51;;;;;;;2.65;1.48;;;;;;;;;;5051810;28;20722;-74
2024/01/17 06:25:18;;;;;;;2.55;2.33;;;;;;;;;;5018069;28;20381;-74
2024/01/17 06:27:46;;;;;;;1.45;1.10;;;;;;;;;;5053855;28;24018;-74
2024/01/17 06:30:14;;;;;;;1.38;0.77;;;;;;;;;;5044929;28;20043;-74
2024/01/17 06:32:42;;;;;;;0.70;0.70;;;;;;;;;;5053459;28;20049;-73
2024/01/17 06:35:10;;;;;;;0.50;0.50;;;;;;;;;;5050337;28;20627;-75
2024/01/17 06:37:38;;;;;;;1.60;1.05;;;;;;;;;;5054037;28;20052;-73
2024/01/17 06:40:07;;;;;;;2.17;1.83;;;;;;;;;;5055779;28;20147;-74
2024/01/17 06:42:35;;;;;;;1.55;1.45;;;;;;;;;;5012137;28;25583;-73
2024/01/17 06:45:04;;;;;;;0.95;0.95;;;;;;;;;;5044890;28;20084;-73
2024/01/17 06:47:31;;;;;;;0.52;0.52;;;;;;;;;;5056758;28;20054;-73
2024/01/17 06:50:00;;;;;;;0.85;0.85;;;;;;;;;;5056917;28;20047;-74
2024/01/17 06:52:28;;;;;;;0.45;0.45;;;;;;;;;;5055709;28;20149;-74
2024/01/17 06:54:56;;;;;;;1.23;1.00;;;;;;;;;;5055789;28;20129;-74
2024/01/17 06:57:24;;;;;;;3.88;2.83;;;;;;;;;;5054872;28;20417;-73
2024/01/17 06:59:51;;;;;;;1.30;1.23;;;;;;;;;;5049977;28;20037;-73
2024/01/17 07:02:20;;;;;;;0.22;0.22;;;;;;;;;;5050272;28;20049;-74
2024/01/17 07:04:50;;;;;;;1.13;0.85;;;;;;;;;;5052059;28;20041;-74
2024/01/17 07:07:17;;;;;;;1.10;1.10;;;;;;;;;;5057290;28;20391;-75
2024/01/17 07:09:45;;;;;;;2.92;1.98;;;;;;;;;;5059643;28;20040;-74
2024/01/17 07:12:13;;;;;;;0.35;0.35;;;;;;;;;;5057667;28;20055;-73
2024/01/17 07:14:41;;;;;;;1.27;1.17;;;;;;;;;;5065089;28;20048;-74
2024/01/17 07:17:08;;;;;;;1.00;0.90;;;;;;;;;;5057567;28;20051;-74
2024/01/17 07:19:36;;;;;;;1.48;1.38;;;;;;;;;;5060007;28;20087;-75
2024/01/17 07:22:07;;;;;;;2.33;2.13;;;;;;;;;;5062474;28;20069;-74
2024/01/17 07:24:38;;;;;;;1.10;0.63;;;;;;;;;;5043980;28;20131;-74
2024/01/17 07:27:05;;;;;;;3.10;2.35;;;;;;;;;;5057483;28;20570;-74
2024/01/17 07:29:34;;;;;;;1.33;1.30;;;;;;;;;;5065158;28;20060;-73
2024/01/17 07:32:02;;;;;;;1.05;0.82;;;;;;;;;;5060541;28;20072;-74
2024/01/17 07:34:30;;;;;;;0.77;0.77;;;;;;;;;;5062046;28;20040;-74
2024/01/17 07:36:58;;;;;;;0.45;0.45;;;;;;;;;;5051141;28;20050;-74
2024/01/17 07:39:26;;;;;;;0.70;0.70;;;;;;;;;;5060152;28;20033;-74
2024/01/17 07:41:55;;;;;;;0.68;0.68;;;;;;;;;;5055015;28;20301;-74
2024/01/17 07:44:27;;;;;;;0.30;0.30;;;;;;;;;;5054863;28;20052;-74
2024/01/17 07:46:55;;;;;;;4.70;1.40;;;;;;;;;;5035079;28;20051;-74
2024/01/17 07:49:23;;;;;;;2.78;2.45;;;;;;;;;;5054903;28;20123;-74
2024/01/17 07:51:51;;;;;;;0.65;0.65;;;;;;;;;;5055917;28;20041;-74
2024/01/17 07:54:18;;;;;;;1.00;1.00;;;;;;;;;;5059383;28;20047;-75
2024/01/17 07:56:46;;;;;;;2.25;2.05;;;;;;;;;;5051586;28;20340;-75
2024/01/17 07:59:14;;;;;;;3.15;2.88;;;;;;;;;;5053984;28;20410;-74
2024/01/17 08:01:42;;;;;;;2.53;1.55;;;;;;;;;;5049643;28;20044;-74
2024/01/17 08:04:09;;;;;;;4.18;2.78;;;;;;;;;;5057353;28;20431;-74
2024/01/17 08:06:37;;;;;;;3.17;1.92;;;;;;;;;;5059072;28;20067;-74
2024/01/17 08:09:20;;;;;;;2.20;2.05;;;;;;;;;;5060830;28;20048;-75
2024/01/17 08:11:48;;;;;;;0.47;0.45;;;;;;;;;;5056845;28;20052;-74
2024/01/17 08:14:16;;;;;;;2.15;1.77;;;;;;;;;;5022623;28;20418;-73
2024/01/17 08:16:45;;;;;;;4.05;1.90;;;;;;;;;;5060062;28;20576;-74
2024/01/17 08:19:13;;;;;;;1.70;1.50;;;;;;;;;;5057153;28;20125;-74
2024/01/17 08:21:41;;;;;;;2.35;2.20;;;;;;;;;;5057747;28;20052;-74
2024/01/17 08:24:09;;;;;;;5.35;4.88;;;;;;;;;;5051963;28;20102;-74
2024/01/17 08:26:39;;;;;;;0.88;0.88;;;;;;;;;;5055058;28;20430;-73
2024/01/17 08:29:07;;;;;;;0.40;0.40;;;;;;;;;;5041941;28;20094;-73
2024/01/17 08:31:34;;;;;;;0.50;0.38;;;;;;;;;;5048680;28;20354;-74
2024/01/17 08:34:03;;;;;;;1.42;1.33;;;;;;;;;;5059838;28;20036;-74
2024/01/17 08:36:31;;;;;;;0.50;0.50;;;;;;;;;;5056242;28;20040;-73
2024/01/17 08:38:59;;;;;;;0.75;0.73;;;;;;;;;;5052327;28;20056;-74
2024/01/17 08:41:26;;;;;;;1.08;1.08;;;;;;;;;;5036960;28;20144;-74
2024/01/17 08:43:54;;;;;;;0.75;0.75;;;;;;;;;;5044156;28;20090;-74
2024/01/17 08:46:22;;;;;;;0.52;0.52;;;;;;;;;;5055193;28;20371;-74
2024/01/17 08:48:49;;;;;;;2.45;2.30;;;;;;;;;;5060991;28;20619;-74
2024/01/17 08:51:17;;;;;;;2.70;2.47;;;;;;;;;;5063176;28;20056;-74
2024/01/17 08:53:47;;;;;;;0.47;0.47;;;;;;;;;;5064448;28;20044;-74
2024/01/17 08:56:15;;;;;;;1.30;1.20;;;;;;;;;;5057523;28;20048;-73
2024/01/17 08:58:43;;;;;;;1.27;0.68;;;;;;;;;;5030605;28;37446;-73
2024/01/17 09:01:11;;;;;;;0.50;0.50;;;;;;;;;;5006358;28;22823;-74
2024/01/17 09:03:39;;;;;;;0.20;0.20;;;;;;;;;;5044780;28;20060;-74
2024/01/17 09:06:07;;;;;;;1.77;1.10;;;;;;;;;;5042658;28;34136;-74
2024/01/17 09:08:35;;;;;;;1.45;0.57;;;;;;;;;;5054981;28;20068;-74
2024/01/17 09:11:03;;;;;;;0.55;0.55;;;;;;;;;;5052529;28;20052;-74
2024/01/17 09:13:30;;;;;;;1.05;0.95;;;;;;;;;;5049547;28;20160;-74
2024/01/17 09:15:58;;;;;;;1.02;1.02;;;;;;;;;;5050659;28;20075;-74
2024/01/17 09:18:25;;;;;;;0.60;0.52;;;;;;;;;;5056742;28;20048;-73
2024/01/17 09:20:53;;;;;;;0.95;0.95;;;;;;;;;;5055590;28;20048;-74
2024/01/17 09:23:21;;;;;;;0.52;0.52;;;;;;;;;;5043593;28;20464;-74
2024/01/17 09:25:49;;;;;;;0.73;0.68;;;;;;;;;;5059359;28;20053;-74
2024/01/17 09:28:17;;;;;;;1.08;1.05;;;;;;;;;;5055234;28;20129;-74
2024/01/17 09:30:45;;;;;;;1.05;1.05;;;;;;;;;;5052141;28;20040;-74
2024/01/17 09:33:13;;;;;;;1.38;1.27;;;;;;;;;;5059877;28;20069;-74
2024/01/17 09:35:44;;;;;;;0.60;0.60;;;;;;;;;;5056907;28;20386;-75
2024/01/17 09:38:24;;;;;;;0.50;0.50;;;;;;;;;;5050224;28;20049;-75
2024/01/17 09:40:52;;;;;;;5.38;1.50;;;;;;;;;;5054717;28;20056;-75
2024/01/17 09:43:19;;;;;;;0.70;0.70;;;;;;;;;;5059761;28;20110;-75
2024/01/17 09:45:47;;;;;;;0.85;0.85;;;;;;;;;;5051895;28;20072;-75
2024/01/17 09:48:18;;;;;;;0.20;0.20;;;;;;;;;;5057789;28;20044;-74
2024/01/17 09:50:48;;;;;;;1.85;1.75;;;;;;;;;;5055922;28;20323;-74
2024/01/17 09:53:17;;;;;;;1.02;0.88;;;;;;;;;;5038993;28;20118;-73
2024/01/17 09:55:46;;;;;;;0.95;0.90;;;;;;;;;;5051791;28;20533;-73
2024/01/17 09:58:13;;;;;;;0.57;0.57;;;;;;;;;;5056261;28;20497;-75
2024/01/17 10:00:41;;;;;;;0.85;0.85;;;;;;;;;;5030661;28;20041;-75
2024/01/17 10:03:20;;;;;;;0.50;0.40;;;;;;;;;;5040650;28;20123;-73
2024/01/17 10:05:52;;;;;;;0.43;0.43;;;;;;;;;;5054631;28;20171;-74
2024/01/17 10:08:20;;;;;;;0.20;0.20;;;;;;;;;;5053677;28;20399;-74
2024/01/17 10:10:48;;;;;;;1.55;0.45;;;;;;;;;;5059158;28;20632;-73
2024/01/17 10:13:16;;;;;;;0.22;0.22;;;;;;;;;;5058624;28;20410;-74
2024/01/17 10:15:45;;;;;;;0.80;0.80;;;;;;;;;;5055441;28;20055;-74
2024/01/17 10:18:13;;;;;;;1.63;0.90;;;;;;;;;;5056092;28;20079;-74
2024/01/17 10:20:42;;;;;;;0.70;0.70;;;;;;;;;;5041290;28;20136;-73
2024/01/17 10:23:10;;;;;;;0.40;0.40;;;;;;;;;;5050423;28;20041;-74
2024/01/17 10:25:39;;;;;;;1.85;1.70;;;;;;;;;;5050273;28;20140;-73
2024/01/17 10:28:07;;;;;;;1.00;0.98;;;;;;;;;;5054092;28;20095;-75
2024/01/17 10:30:37;;;;;;;0.28;0.20;;;;;;;;;;5040924;28;20447;-75
2024/01/17 10:33:05;;;;;;;0.30;0.30;;;;;;;;;;5047958;28;20032;-75
2024/01/17 10:35:32;;;;;;;0.22;0.22;;;;;;;;;;5033928;28;20051;-74
2024/01/17 10:38:00;;;;;;;0.93;0.93;;;;;;;;;;5049850;28;20491;-75
2024/01/17 10:40:29;;;;;;;0.52;0.52;;;;;;;;;;5053840;28;20037;-75
2024/01/17 10:43:04;;;;;;;0.40;0.40;;;;;;;;;;5056136;28;20403;-75
2024/01/17 10:45:35;;;;;;;1.45;0.98;;;;;;;;;;5061300;28;20069;-75
2024/01/17 10:48:03;;;;;;;0.37;0.37;;;;;;;;;;5053131;28;20037;-74
2024/01/17 10:50:30;;;;;;;3.33;3.00;;;;;;;;;;5053204;28;20298;-75
2024/01/17 10:53:05;;;;;;;0.63;0.52;;;;;;;;;;5055329;28;20115;-73
2024/01/17 10:55:34;;;;;;;0.45;0.35;;;;;;;;;;5053503;28;20059;-74
2024/01/17 10:58:07;;;;;;;0.40;0.40;;;;;;;;;;5057461;28;20048;-74
2024/01/17 11:00:38;;;;;;;1.65;1.10;;;;;;;;;;5047646;28;20052;-74
2024/01/17 11:03:08;;;;;;;0.90;0.90;;;;;;;;;;5051335;28;20075;-74
2024/01/17 11:05:41;;;;;;;0.30;0.30;;;;;;;;;;5050378;28;20052;-75
2024/01/17 11:08:09;;;;;;;1.75;1.65;;;;;;;;;;5035106;28;20059;-75
2024/01/17 11:10:36;;;;;;;0.85;0.85;;;;;;;;;;5052016;28;20160;-76
2024/01/17 11:13:04;;;;;;;0.82;0.57;;;;;;;;;;5056725;28;20135;-75
2024/01/17 11:15:33;;;;;;;0.65;0.52;;;;;;;;;;5040270;28;20048;-73
2024/01/17 11:18:01;;;;;;;0.35;0.35;;;;;;;;;;5051175;28;20056;-75
2024/01/17 11:20:29;;;;;;;1.42;1.08;;;;;;;;;;5051435;28;20126;-74
2024/01/17 11:23:01;;;;;;;0.35;0.35;;;;;;;;;;5054551;28;20029;-73
2024/01/17 11:25:49;;;;;;;0.40;0.40;;;;;;;;;;5051045;28;20080;-74
2024/01/17 11:28:20;;;;;;;2.25;1.30;;;;;;;;;;5055890;28;20447;-74
2024/01/17 11:31:13;;;;;;;0.65;0.50;;;;;;;;;;5053985;28;20045;-74
2024/01/17 11:33:41;;;;;;;0.20;0.20;;;;;;;;;;5049607;28;20486;-75
2024/01/17 11:36:08;;;;;;;0.80;0.80;;;;;;;;;;5052348;28;20052;-73
2024/01/17 11:38:36;;;;;;;1.65;1.55;;;;;;;;;;5050991;28;20670;-74
2024/01/17 11:41:09;;;;;;;0.63;0.50;;;;;;;;;;5055206;28;20394;-74
2024/01/17 11:43:38;;;;;;;0.70;0.70;;;;;;;;;;5054397;28;20049;-74
2024/01/17 11:46:08;;;;;;;0.20;0.20;;;;;;;;;;5050236;28;20052;-74
2024/01/17 11:48:38;;;;;;;1.33;1.30;;;;;;;;;;5036039;28;20068;-74
2024/01/17 11:51:15;;;;;;;0.40;0.40;;;;;;;;;;5049159;28;20049;-74
2024/01/17 11:53:46;;;;;;;0.30;0.30;;;;;;;;;;5053616;28;20064;-74
2024/01/17 11:56:15;;;;;;;0.68;0.57;;;;;;;;;;5057594;28;20060;-73
2024/01/17 11:58:44;;;;;;;0.15;0.15;;;;;;;;;;5058699;28;20835;-74
2024/01/17 12:01:17;;;;;;;1.05;1.00;;;;;;;;;;5056768;28;20098;-74
2024/01/17 12:03:45;;;;;;;0.10;0.10;;;;;;;;;;5057585;28;20044;-74
2024/01/17 12:06:12;;;;;;;1.55;0.45;;;;;;;;;;5059248;28;20041;-74
2024/01/17 12:08:40;;;;;;;1.25;1.20;;;;;;;;;;5054728;28;20139;-74
2024/01/17 12:11:11;;;;;;;0.20;0.20;;;;;;;;;;5056619;28;20052;-74
2024/01/17 12:13:39;;;;;;;0.65;0.65;;;;;;;;;;5052035;28;20517;-74
2024/01/17 12:16:07;;;;;;;0.10;0.10;;;;;;;;;;5053640;28;20041;-74
2024/01/17 12:18:36;;;;;;;0.10;0.10;;;;;;;;;;5059183;28;20090;-74
2024/01/17 12:21:04;;;;;;;0.85;0.85;;;;;;;;;;5059902;28;20521;-74
2024/01/17 12:23:33;;;;;;;0.60;0.60;;;;;;;;;;5052029;28;20040;-74
2024/01/17 12:26:01;;;;;;;0.30;0.30;;;;;;;;;;5042119;28;20045;-74
2024/01/17 12:28:29;;;;;;;0.20;0.20;;;;;;;;;;5020660;28;20131;-75
2024/01/17 12:31:01;;;;;;;0.93;0.93;;;;;;;;;;5056212;28;20049;-74
2024/01/17 12:33:33;;;;;;;2.20;1.02;;;;;;;;;;5060124;28;20073;-75
2024/01/17 12:36:01;;;;;;;0.35;0.35;;;;;;;;;;5060597;28;20359;-75
2024/01/17 12:38:30;;;;;;;1.98;0.85;;;;;;;;;;5035542;28;20487;-75
2024/01/17 12:40:59;;;;;;;0.20;0.20;;;;;;;;;;5031256;28;20044;-75
2024/01/17 12:43:29;;;;;;;0.20;0.20;;;;;;;;;;5031202;28;20044;-75
2024/01/17 12:45:57;;;;;;;0.10;0.10;;;;;;;;;;5056853;28;20079;-74
2024/01/17 12:48:26;;;;;;;0.77;0.77;;;;;;;;;;5052665;28;20121;-74
2024/01/17 12:50:59;;;;;;;0.10;0.10;;;;;;;;;;5056998;28;20056;-74
2024/01/17 12:53:28;;;;;;;0.15;0.15;;;;;;;;;;5054954;28;20945;-75
2024/01/17 12:55:56;;;;;;;1.08;0.68;;;;;;;;;;5050337;28;20051;-75
2024/01/17 12:58:24;;;;;;;0.45;0.45;;;;;;;;;;5052025;28;20048;-75
2024/01/17 13:00:51;;;;;;;0.13;0.13;;;;;;;;;;5046938;28;20053;-74
2024/01/17 13:03:21;;;;;;;0.95;0.88;;;;;;;;;;5048093;28;20755;-74
2024/01/17 13:06:03;;;;;;;3.83;1.63;;;;;;;;;;5054490;28;20728;-75
2024/01/17 13:08:31;;;;;;;0.20;0.20;;;;;;;;;;5054659;28;20141;-74
2024/01/17 13:11:02;;;;;;;0.57;0.57;;;;;;;;;;5054076;28;20127;-74
2024/01/17 13:13:30;;;;;;;0.85;0.85;;;;;;;;;;5039276;28;20052;-74
2024/01/17 13:15:59;;;;;;;0.40;0.40;;;;;;;;;;5060136;28;20047;-74
2024/01/17 13:18:29;;;;;;;0.80;0.80;;;;;;;;;;5055642;28;20060;-73
2024/01/17 13:21:08;;;;;;;1.35;1.25;;;;;;;;;;5040027;28;20041;-73
2024/01/17 13:23:36;;;;;;;3.00;1.75;;;;;;;;;;5059165;28;20044;-74
2024/01/17 13:26:04;;;;;;;2.17;1.67;;;;;;;;;;5060008;28;20044;-74
2024/01/17 13:28:31;;;;;;;1.75;1.35;;;;;;;;;;5012656;23;20054;-74
2024/01/17 13:30:59;;;;;;;1.58;1.42;;;;;;;;;;4990001;28;20121;-74
2024/01/17 13:33:26;;;;;;;2.35;2.15;;;;;;;;;;4994649;28;20045;-74
2024/01/17 13:35:54;;;;;;;0.88;0.88;;;;;;;;;;4994931;28;20132;-74
2024/01/17 13:38:25;;;;;;;2.88;0.70;;;;;;;;;;5000465;28;20046;-74
2024/01/17 13:40:54;;;;;;;3.42;0.90;;;;;;;;;;4994380;28;20038;-74
2024/01/17 13:43:26;;;;;;;0.80;0.80;;;;;;;;;;4997110;28;20037;-74
2024/01/17 13:45:53;;;;;;;0.10;0.10;;;;;;;;;;4993485;28;20183;-74
2024/01/17 13:48:21;;;;;;;0.10;0.10;;;;;;;;;;4997557;28;20427;-74
2024/01/17 13:50:50;;;;;;;0.22;0.22;;;;;;;;;;4998106;28;20050;-72
2024/01/17 13:53:18;;;;;;;0.38;0.38;;;;;;;;;;4985371;28;20073;-73
2024/01/17 13:55:46;;;;;;;1.17;1.08;;;;;;;;;;4992675;28;20496;-72
2024/01/17 13:58:14;;;;;;;3.83;2.08;;;;;;;;;;4992098;28;20407;-73
2024/01/17 14:00:42;;;;;;;1.48;0.85;;;;;;;;;;5000654;28;20504;-73
2024/01/17 14:03:10;;;;;;;7.82;1.90;;;;;;;;;;4948293;28;20060;-73
2024/01/17 14:05:38;;;;;;;1.17;0.70;;;;;;;;;;5000800;28;20518;-72
2024/01/17 14:08:07;;;;;;;1.00;0.82;;;;;;;;;;5000567;28;20133;-73
2024/01/17 14:10:34;;;;;;;2.50;2.30;;;;;;;;;;4994805;28;20809;-75
2024/01/17 14:13:02;;;;;;;1.33;0.65;;;;;;;;;;5002871;28;20053;-74
2024/01/17 14:15:30;;;;;;;0.32;0.32;;;;;;;;;;4999117;28;20077;-74
2024/01/17 14:17:59;;;;;;;0.55;0.55;;;;;;;;;;5003761;28;20057;-76
2024/01/17 14:20:28;;;;;;;0.30;0.30;;;;;;;;;;4987197;28;20081;-74
2024/01/17 14:22:56;;;;;;;0.13;0.13;;;;;;;;;;5002943;28;20041;-75
2024/01/17 14:25:24;;;;;;;0.50;0.50;;;;;;;;;;4993601;28;20046;-74
2024/01/17 14:27:52;;;;;;;0.03;0.03;;;;;;;;;;4998194;28;20129;-76
2024/01/17 14:30:19;;;;;;;1.85;1.75;;;;;;;;;;4997967;28;20165;-76
2024/01/17 14:32:47;;;;;;;6.00;5.53;;;;;;;;;;4995740;28;20157;-73
2024/01/17 14:35:15;;;;;;;0.10;0.10;;;;;;;;;;4980698;28;29482;-75
2024/01/17 14:37:43;;;;;;;0.30;0.30;;;;;;;;;;5000463;28;20050;-76
2024/01/17 14:40:11;;;;;;;1.33;1.20;;;;;;;;;;4928012;28;26539;-76
2024/01/17 14:42:39;;;;;;;0.10;0.10;;;;;;;;;;4994408;28;22380;-75
2024/01/17 14:45:10;;;;;;;4.00;2.38;;;;;;;;;;4991131;28;20049;-75
2024/01/17 14:47:39;;;;;;;0.22;0.22;;;;;;;;;;4992131;28;20057;-76
2024/01/17 14:50:07;;;;;;;1.10;1.02;;;;;;;;;;4997521;28;20121;-75
2024/01/17 14:52:35;;;;;;;2.47;1.92;;;;;;;;;;4997803;28;20056;-74
2024/01/17 14:55:06;;;;;;;0.65;0.65;;;;;;;;;;4999099;28;20129;-75